Time;durP1;ratioP1;P1;durP2;ratioP2;P2;SDS_P1;SDS_P2;PMS_P1;PMS_P2;Temp;Humidity;BMP_temperature;BMP_pressure;BME280_temperature;BME280_humidity;BME280_pressure;Samples;Min_cycle;Max_cycle;Signal;HPM_P1;HPM_P2
2023/03/11 00:00:28;;;;;;;4.43;0.80;;;;;;;0.56;80.36;100614.19;5029942;28;20037;-79
2023/03/11 00:02:56;;;;;;;3.50;1.07;;;;;;;0.52;80.25;100622.66;5031055;28;20060;-79
2023/03/11 00:05:31;;;;;;;4.20;0.90;;;;;;;0.48;79.68;100628.59;5030019;28;20192;-78
2023/03/11 00:07:57;;;;;;;2.13;0.73;;;;;;;0.42;79.72;100627.69;5030315;28;20025;-79
2023/03/11 00:10:28;;;;;;;4.07;0.67;;;;;;;0.38;79.72;100623.34;5031567;28;20037;-79
2023/03/11 00:12:54;;;;;;;3.05;0.70;;;;;;;0.36;79.62;100625.03;5031173;28;20064;-79
2023/03/11 00:15:20;;;;;;;4.63;1.13;;;;;;;0.33;79.25;100627.56;5030756;28;20028;-79
2023/03/11 00:17:47;;;;;;;3.73;0.70;;;;;;;0.32;79.90;100635.22;5031387;28;20029;-79
2023/03/11 00:20:21;;;;;;;3.77;0.70;;;;;;;0.29;79.33;100636.03;5031171;28;20115;-78
2023/03/11 00:22:47;;;;;;;2.67;0.67;;;;;;;0.31;80.17;100639.47;5031476;28;20029;-79
2023/03/11 00:25:13;;;;;;;5.37;1.00;;;;;;;0.29;79.60;100636.03;5030044;28;20034;-78
2023/03/11 00:27:39;;;;;;;3.47;0.87;;;;;;;0.27;78.97;100643.69;5031246;28;20024;-78
2023/03/11 00:30:05;;;;;;;2.60;0.77;;;;;;;0.22;78.23;100644.47;5030292;28;20037;-79
2023/03/11 00:32:30;;;;;;;3.37;0.80;;;;;;;0.20;78.90;100641.03;5028640;28;20075;-78
2023/03/11 00:34:55;;;;;;;4.77;0.80;;;;;;;0.18;78.82;100647.81;5028711;28;20033;-78
2023/03/11 00:37:21;;;;;;;5.30;1.40;;;;;;;0.13;77.53;100655.44;5028669;28;20033;-78
2023/03/11 00:39:46;;;;;;;1.70;0.80;;;;;;;0.10;77.88;100656.25;5031063;28;20385;-79
2023/03/11 00:42:11;;;;;;;3.13;0.80;;;;;;;0.10;77.85;100656.25;5031080;28;20028;-79
2023/03/11 00:44:36;;;;;;;3.80;0.90;;;;;;;0.08;77.89;100663.03;5030782;28;20377;-78
2023/03/11 00:47:02;;;;;;;4.20;0.70;;;;;;;0.06;77.53;100663.88;5029389;28;20031;-79
2023/03/11 00:49:27;;;;;;;2.00;0.70;;;;;;;0.03;76.96;100674.91;5030669;28;20032;-79
2023/03/11 00:51:52;;;;;;;1.27;0.60;;;;;;;0.05;78.51;100670.66;5030372;28;20376;-79
2023/03/11 00:54:18;;;;;;;3.77;0.70;;;;;;;0.00;76.88;100672.31;5031342;28;20111;-79
2023/03/11 00:56:43;;;;;;;2.13;0.70;;;;;;;0.02;77.10;100675.72;5027671;28;20025;-79
2023/03/11 00:59:08;;;;;;;1.83;0.60;;;;;;;-0.02;77.16;100679.94;5027411;28;20060;-78
2023/03/11 01:01:34;;;;;;;2.60;0.70;;;;;;;-0.03;76.77;100677.38;5029816;28;20041;-78
2023/03/11 01:03:59;;;;;;;1.27;0.60;;;;;;;-0.05;76.41;100674.78;5029141;28;20029;-78
2023/03/11 01:06:24;;;;;;;3.50;0.80;;;;;;;-0.07;76.39;100683.28;5034264;28;20504;-78
2023/03/11 01:08:49;;;;;;;1.63;0.60;;;;;;;-0.11;77.05;100684.06;5033666;28;20134;-78
2023/03/11 01:11:15;;;;;;;1.60;0.60;;;;;;;-0.14;77.69;100690.00;5034536;28;20029;-78
2023/03/11 01:13:40;;;;;;;3.83;0.67;;;;;;;-0.16;78.16;100692.50;5033906;28;20201;-78
2023/03/11 01:16:06;;;;;;;7.07;0.90;;;;;;;-0.17;78.37;100695.91;5034497;28;20025;-79
2023/03/11 01:18:32;;;;;;;4.03;0.60;;;;;;;-0.17;78.83;100703.56;5031773;28;20152;-78
2023/03/11 01:20:58;;;;;;;4.37;1.10;;;;;;;-0.16;78.71;100712.13;5033403;28;20124;-79
2023/03/11 01:23:24;;;;;;;3.73;0.70;;;;;;;-0.18;78.71;100707.00;5033419;28;20100;-78
2023/03/11 01:25:49;;;;;;;4.87;0.87;;;;;;;-0.18;79.13;100707.00;5033207;28;20026;-78
2023/03/11 01:28:14;;;;;;;2.37;0.70;;;;;;;-0.19;79.18;100714.63;5032900;28;20037;-78
2023/03/11 01:30:41;;;;;;;3.60;0.70;;;;;;;-0.22;79.01;100712.88;5031532;28;20024;-78
2023/03/11 01:33:07;;;;;;;2.50;0.77;;;;;;;-0.24;79.87;100713.69;5034495;28;20030;-78
2023/03/11 01:35:34;;;;;;;2.90;0.90;;;;;;;-0.25;79.54;100722.19;5032749;28;20040;-79
2023/03/11 01:37:59;;;;;;;1.53;0.60;;;;;;;-0.26;79.84;100723.88;5032896;28;20029;-78
2023/03/11 01:40:40;;;;;;;6.03;0.90;;;;;;;-0.26;80.20;100716.22;5032165;28;20033;-78
2023/03/11 01:43:26;;;;;;;3.37;0.70;;;;;;;-0.27;79.51;100717.06;5033388;28;20029;-79
2023/03/11 01:45:52;;;;;;;3.53;0.87;;;;;;;-0.28;79.60;100717.03;5031934;28;20033;-78
2023/03/11 01:48:17;;;;;;;3.53;0.90;;;;;;;-0.30;79.63;100722.09;5032975;28;20028;-78
2023/03/11 01:50:47;;;;;;;4.00;0.80;;;;;;;-0.31;79.93;100713.59;5034927;28;20033;-79
2023/03/11 01:53:15;;;;;;;4.77;0.80;;;;;;;-0.32;79.75;100714.44;5031794;28;20021;-78
2023/03/11 01:55:41;;;;;;;1.40;0.60;;;;;;;-0.33;79.78;100712.69;5033479;28;20029;-78
2023/03/11 01:58:13;;;;;;;1.67;0.90;;;;;;;-0.33;79.62;100722.03;5032669;28;20021;-79
2023/03/11 02:00:40;;;;;;;5.80;0.70;;;;;;;-0.36;78.91;100717.75;5029040;28;20040;-78
2023/03/11 02:03:13;;;;;;;2.43;0.60;;;;;;;-0.37;79.94;100720.31;5031489;28;20036;-78
2023/03/11 02:05:39;;;;;;;2.40;0.60;;;;;;;-0.38;79.48;100718.56;5032741;28;20057;-78
2023/03/11 02:08:06;;;;;;;3.10;0.60;;;;;;;-0.40;79.44;100715.13;5032840;28;20121;-78
2023/03/11 02:10:31;;;;;;;3.40;0.50;;;;;;;-0.40;79.03;100717.69;5033431;28;20374;-78
2023/03/11 02:12:57;;;;;;;3.07;0.93;;;;;;;-0.43;79.67;100721.06;5033213;28;20100;-78
2023/03/11 02:15:23;;;;;;;1.23;0.50;;;;;;;-0.44;79.76;100723.56;5033134;28;20038;-78
2023/03/11 02:17:48;;;;;;;2.70;0.70;;;;;;;-0.47;79.63;100724.38;5032485;28;20469;-78
2023/03/11 02:20:39;;;;;;;2.17;0.60;;;;;;;-0.46;80.26;100726.97;5030141;28;20087;-78
2023/03/11 02:23:04;;;;;;;3.73;0.67;;;;;;;-0.48;80.06;100725.22;5015583;28;20020;-79
2023/03/11 02:26:09;;;;;;;2.17;0.60;;;;;;;-0.48;80.09;100726.06;5033187;28;20026;-79
2023/03/11 02:28:36;;;;;;;1.23;0.60;;;;;;;-0.51;79.51;100727.72;5017477;28;20060;-78
2023/03/11 02:31:01;;;;;;;1.80;0.73;;;;;;;-0.53;79.50;100729.38;5031537;28;20126;-78
2023/03/11 02:33:31;;;;;;;3.30;0.83;;;;;;;-0.54;79.47;100728.53;5032281;28;20516;-78
2023/03/11 02:35:57;;;;;;;5.87;1.03;;;;;;;-0.54;79.04;100738.75;5031580;28;20029;-78
2023/03/11 02:38:23;;;;;;;1.67;0.60;;;;;;;-0.55;78.89;100731.03;5032477;28;20030;-78
2023/03/11 02:40:59;;;;;;;2.33;0.70;;;;;;;-0.56;79.10;100730.19;5028021;28;20021;-78
2023/03/11 02:43:36;;;;;;;2.30;0.50;;;;;;;-0.57;79.12;100731.03;5033976;28;20051;-78
2023/03/11 02:46:03;;;;;;;1.60;0.60;;;;;;;-0.58;79.98;100726.75;5031458;28;20028;-78
2023/03/11 02:48:29;;;;;;;1.20;0.50;;;;;;;-0.58;79.91;100731.84;5031646;28;20546;-78
2023/03/11 02:50:55;;;;;;;1.53;0.60;;;;;;;-0.59;79.53;100726.69;5031958;28;20056;-78
2023/03/11 02:53:20;;;;;;;2.97;0.70;;;;;;;-0.58;79.69;100736.09;5029788;28;20025;-78
2023/03/11 02:55:46;;;;;;;1.90;0.57;;;;;;;-0.59;79.92;100730.13;5032162;28;20388;-78
2023/03/11 02:58:11;;;;;;;3.63;0.80;;;;;;;-0.58;79.83;100728.44;5032520;28;20340;-78
2023/03/11 03:00:37;;;;;;;2.23;1.20;;;;;;;-0.58;79.97;100731.84;5030659;28;20018;-79
2023/03/11 03:03:02;;;;;;;4.20;0.90;;;;;;;-0.59;80.25;100725.03;5031316;28;20021;-78
2023/03/11 03:05:28;;;;;;;3.40;0.70;;;;;;;-0.56;80.00;100724.22;5031197;28;20029;-78
2023/03/11 03:07:53;;;;;;;3.10;0.83;;;;;;;-0.57;79.88;100722.47;5030993;28;20033;-78
2023/03/11 03:10:20;;;;;;;2.33;0.70;;;;;;;-0.59;79.48;100730.13;5032130;28;20025;-78
2023/03/11 03:12:45;;;;;;;1.67;0.63;;;;;;;-0.58;79.90;100728.44;5030474;28;20029;-78
2023/03/11 03:15:10;;;;;;;2.10;0.60;;;;;;;-0.58;80.05;100728.44;5030292;28;20072;-78
2023/03/11 03:17:36;;;;;;;3.70;0.90;;;;;;;-0.58;79.97;100736.97;5030229;28;20041;-78
2023/03/11 03:20:05;;;;;;;1.30;0.63;;;;;;;-0.57;79.86;100741.25;5031899;28;20095;-78
2023/03/11 03:22:30;;;;;;;1.97;0.73;;;;;;;-0.60;80.44;100741.19;5031809;28;20026;-78
2023/03/11 03:24:55;;;;;;;2.03;0.70;;;;;;;-0.62;80.58;100756.50;5030728;28;20033;-78
2023/03/11 03:27:21;;;;;;;4.43;0.80;;;;;;;-0.62;80.00;100764.16;5027793;28;20383;-78
2023/03/11 03:29:46;;;;;;;3.47;0.80;;;;;;;-0.63;80.48;100764.13;5030818;28;20018;-78
2023/03/11 03:32:11;;;;;;;2.30;1.00;;;;;;;-0.66;80.35;100770.03;5031939;28;20021;-78
2023/03/11 03:34:37;;;;;;;2.27;0.80;;;;;;;-0.65;80.57;100776.00;5030793;28;20026;-78
2023/03/11 03:37:02;;;;;;;1.30;0.60;;;;;;;-0.67;79.78;100782.75;5030302;28;20078;-78
2023/03/11 03:39:27;;;;;;;3.37;0.80;;;;;;;-0.70;80.28;100785.28;5029071;28;20030;-78
2023/03/11 03:41:53;;;;;;;3.37;0.70;;;;;;;-0.71;80.30;100781.00;5031748;28;20037;-78
2023/03/11 03:44:18;;;;;;;2.37;0.80;;;;;;;-0.72;80.67;100789.50;5031633;28;20087;-78
2023/03/11 03:46:43;;;;;;;3.37;0.80;;;;;;;-0.72;80.65;100795.47;5031383;28;20082;-78
2023/03/11 03:49:08;;;;;;;4.10;0.80;;;;;;;-0.72;80.68;100799.72;5029106;28;20075;-78
2023/03/11 03:51:34;;;;;;;4.10;0.70;;;;;;;-0.73;80.25;100800.56;5025886;28;20021;-78
2023/03/11 03:53:59;;;;;;;3.90;1.00;;;;;;;-0.73;81.03;100798.00;5029708;28;20204;-78
2023/03/11 03:56:24;;;;;;;1.57;0.80;;;;;;;-0.73;80.95;100801.41;5031313;28;20061;-78
2023/03/11 03:58:49;;;;;;;3.77;0.90;;;;;;;-0.73;81.18;100798.00;5029916;28;20030;-78
2023/03/11 04:01:15;;;;;;;4.53;0.70;;;;;;;-0.73;80.83;100798.84;5013065;28;20021;-78
2023/03/11 04:03:40;;;;;;;3.53;0.80;;;;;;;-0.72;81.06;100805.69;5030860;28;20025;-78
2023/03/11 04:06:22;;;;;;;4.00;1.00;;;;;;;-0.72;80.81;100802.28;5031294;28;20088;-78
2023/03/11 04:08:49;;;;;;;;;;;;;;;-0.69;81.14;100804.91;5031335;28;20013;-78
2023/03/11 04:11:14;;;;;;;2.07;0.80;;;;;;;-0.74;81.29;100806.50;5031151;28;19920;-78
2023/03/11 04:13:40;;;;;;;3.10;0.87;;;;;;;-0.75;80.71;100807.31;5030330;28;20393;-78
2023/03/11 04:16:06;;;;;;;4.83;1.10;;;;;;;-0.77;81.08;100813.25;5031025;28;20014;-78
2023/03/11 04:18:33;;;;;;;2.20;0.80;;;;;;;-0.79;80.83;100812.34;5030868;28;20469;-78
2023/03/11 04:20:59;;;;;;;1.47;0.70;;;;;;;-0.80;80.87;100815.75;5030180;28;20520;-78
2023/03/11 04:23:24;;;;;;;3.43;0.90;;;;;;;-0.81;80.91;100818.28;5028210;28;20076;-78
2023/03/11 04:25:49;;;;;;;5.63;0.90;;;;;;;-0.84;80.81;100819.06;5030542;28;20029;-78
2023/03/11 04:28:15;;;;;;;3.80;0.90;;;;;;;-0.85;80.19;100832.66;5030030;28;20017;-78
2023/03/11 04:30:40;;;;;;;2.30;0.80;;;;;;;-0.89;80.72;100825.78;5029491;28;20473;-78
2023/03/11 04:33:05;;;;;;;3.50;0.83;;;;;;;-0.90;81.24;100825.72;5029571;28;20018;-78
2023/03/11 04:35:31;;;;;;;3.40;0.97;;;;;;;-0.94;81.36;100819.72;5028811;28;20473;-78
2023/03/11 04:37:56;;;;;;;3.97;1.20;;;;;;;-0.95;81.62;100828.19;5028634;28;20108;-78
2023/03/11 04:40:21;;;;;;;1.83;0.93;;;;;;;-0.98;81.33;100825.56;5031528;28;20504;-78
2023/03/11 04:42:47;;;;;;;2.40;0.90;;;;;;;-0.99;81.05;100826.41;5033434;28;20072;-78
2023/03/11 04:45:12;;;;;;;3.47;0.90;;;;;;;-1.00;81.35;100825.56;5031635;28;20147;-78
2023/03/11 04:47:37;;;;;;;2.67;1.10;;;;;;;-1.01;81.52;100820.38;5032296;28;20022;-78
2023/03/11 04:50:03;;;;;;;3.93;1.00;;;;;;;-1.01;81.36;100822.94;5033370;28;20503;-78
2023/03/11 04:52:28;;;;;;;4.97;0.80;;;;;;;-1.03;82.01;100822.94;5031715;28;20025;-78
2023/03/11 04:54:54;;;;;;;3.50;0.80;;;;;;;-1.03;81.54;100829.75;5032756;28;20025;-78
2023/03/11 04:57:19;;;;;;;2.47;0.90;;;;;;;-1.08;81.34;100824.50;5031268;28;20030;-78
2023/03/11 04:59:44;;;;;;;7.87;0.97;;;;;;;-1.11;81.59;100822.75;5030511;28;20056;-78
2023/03/11 05:02:10;;;;;;;1.80;0.83;;;;;;;-1.12;81.52;100826.13;5030012;28;20074;-78
2023/03/11 05:04:35;;;;;;;2.37;0.93;;;;;;;-1.12;81.64;100826.13;5032721;28;20030;-78
2023/03/11 05:07:00;;;;;;;2.53;0.90;;;;;;;-1.13;82.04;100829.53;5031325;28;20021;-78
2023/03/11 05:09:26;;;;;;;2.07;0.80;;;;;;;-1.13;81.78;100829.53;5032196;28;20064;-78
2023/03/11 05:11:51;;;;;;;1.30;0.80;;;;;;;-1.14;82.60;100826.94;5031154;28;20048;-78
2023/03/11 05:14:16;;;;;;;3.90;0.90;;;;;;;-1.14;81.98;100826.94;5032428;28;20029;-78
2023/03/11 05:16:41;;;;;;;3.73;0.80;;;;;;;-1.14;82.40;100822.69;5031538;28;20052;-78
2023/03/11 05:19:29;;;;;;;3.90;0.82;;;;;;;-1.14;82.21;100837.16;4993342;28;1061500;-78
2023/03/11 05:21:52;;;;;;;1.23;0.83;;;;;;;-1.16;82.39;100837.09;5031730;28;20374;-78
2023/03/11 05:24:18;;;;;;;1.73;0.63;;;;;;;-1.19;81.77;100834.47;5033402;28;20099;-78
2023/03/11 05:26:43;;;;;;;1.93;0.90;;;;;;;-1.18;81.80;100835.34;5030920;28;20484;-78
2023/03/11 05:29:08;;;;;;;2.70;0.90;;;;;;;-1.22;81.85;100847.19;5033255;28;20021;-78
2023/03/11 05:31:34;;;;;;;4.20;0.90;;;;;;;-1.22;82.70;100850.59;5033729;28;20017;-78
2023/03/11 05:33:59;;;;;;;1.90;0.70;;;;;;;-1.23;82.02;100853.97;5033578;28;20029;-78
2023/03/11 05:36:24;;;;;;;1.63;0.80;;;;;;;-1.26;82.68;100850.50;5031877;28;20033;-78
2023/03/11 05:38:52;;;;;;;1.77;0.83;;;;;;;-1.29;82.94;100853.84;5015407;28;20053;-78
2023/03/11 05:41:17;;;;;;;5.67;0.90;;;;;;;-1.30;82.83;100849.56;5033893;28;20049;-78
2023/03/11 05:43:42;;;;;;;1.53;0.90;;;;;;;-1.31;82.68;100850.41;5031852;28;20048;-77
2023/03/11 05:46:09;;;;;;;3.27;0.97;;;;;;;-1.29;82.40;100860.63;5032298;28;20025;-78
2023/03/11 05:48:35;;;;;;;4.43;0.90;;;;;;;-1.31;82.74;100868.28;5028901;28;20711;-78
2023/03/11 05:51:04;;;;;;;3.20;0.97;;;;;;;-1.31;82.32;100869.94;5015864;28;20028;-78
2023/03/11 05:53:30;;;;;;;2.80;0.93;;;;;;;-1.30;82.46;100871.66;5032862;28;20040;-78
2023/03/11 05:55:59;;;;;;;1.47;0.90;;;;;;;-1.30;82.30;100872.56;5033022;28;20045;-78
2023/03/11 05:58:25;;;;;;;4.67;1.10;;;;;;;-1.29;82.64;100879.38;5032807;28;20037;-78
2023/03/11 06:00:51;;;;;;;3.50;1.10;;;;;;;-1.31;83.21;100880.16;5031458;28;20465;-78
2023/03/11 06:03:16;;;;;;;3.07;1.10;;;;;;;-1.32;82.19;100880.97;5030956;28;20033;-78
2023/03/11 06:05:46;;;;;;;3.60;0.90;;;;;;;-1.33;82.25;100884.34;5032619;28;20040;-78
2023/03/11 06:08:12;;;;;;;4.03;1.00;;;;;;;-1.34;82.24;100890.28;5032972;28;20641;-78
2023/03/11 06:10:37;;;;;;;4.00;0.97;;;;;;;-1.36;82.77;100892.81;5032430;28;20083;-78
2023/03/11 06:13:02;;;;;;;3.50;1.10;;;;;;;-1.38;82.61;100894.47;5032866;28;20460;-78
2023/03/11 06:15:28;;;;;;;2.87;0.97;;;;;;;-1.41;82.97;100890.16;5032006;28;20021;-78
2023/03/11 06:17:54;;;;;;;3.00;1.10;;;;;;;-1.40;83.05;100902.09;5032422;28;20037;-78
2023/03/11 06:20:19;;;;;;;3.80;0.97;;;;;;;-1.42;82.85;100902.84;5031066;28;20374;-78
2023/03/11 06:22:47;;;;;;;3.30;0.90;;;;;;;-1.43;82.65;100899.47;5029662;28;20130;-78
2023/03/11 06:25:12;;;;;;;2.30;0.70;;;;;;;-1.44;83.26;100900.28;5031802;28;20029;-78
2023/03/11 06:27:38;;;;;;;2.20;0.80;;;;;;;-1.45;83.14;100903.66;5032622;28;20511;-78
2023/03/11 06:30:04;;;;;;;2.50;1.10;;;;;;;-1.46;83.77;100901.09;5030442;28;20507;-78
2023/03/11 06:32:29;;;;;;;3.30;1.07;;;;;;;-1.47;83.63;100910.41;5016078;28;20104;-78
2023/03/11 06:34:54;;;;;;;2.27;1.00;;;;;;;-1.48;83.82;100912.94;5031660;28;20069;-78
2023/03/11 06:37:22;;;;;;;3.33;1.10;;;;;;;-1.49;84.66;100914.59;5031202;28;20104;-78
2023/03/11 06:39:51;;;;;;;2.23;1.00;;;;;;;-1.48;84.39;100913.78;5031122;28;20055;-78
2023/03/11 06:42:16;;;;;;;4.03;1.47;;;;;;;-1.48;84.91;100913.78;5031254;28;20490;-78
2023/03/11 06:44:41;;;;;;;2.13;1.00;;;;;;;-1.47;84.60;100922.31;5031218;28;20029;-77
2023/03/11 06:47:06;;;;;;;3.17;1.03;;;;;;;-1.47;84.70;100930.81;5030385;28;20029;-77
2023/03/11 06:49:32;;;;;;;3.03;1.40;;;;;;;-1.45;84.85;100925.78;5030839;28;20029;-77
2023/03/11 06:51:57;;;;;;;3.97;1.10;;;;;;;-1.44;85.49;100936.00;5031808;28;20484;-77
2023/03/11 06:54:22;;;;;;;4.73;1.40;;;;;;;-1.40;85.17;100942.91;5029729;28;20037;-78
2023/03/11 06:56:48;;;;;;;2.60;1.20;;;;;;;-1.39;85.74;100947.19;5031043;28;20484;-78
2023/03/11 06:59:14;;;;;;;2.87;1.20;;;;;;;-1.35;85.66;100958.34;5028563;28;20043;-78
2023/03/11 07:01:39;;;;;;;2.60;1.00;;;;;;;-1.33;84.87;100959.25;5030383;28;20508;-78
2023/03/11 07:04:05;;;;;;;4.60;1.40;;;;;;;-1.32;84.52;100966.09;5030902;28;20056;-78
2023/03/11 07:06:30;;;;;;;3.00;1.40;;;;;;;-1.30;84.43;100959.31;5031431;28;20107;-78
2023/03/11 07:08:55;;;;;;;6.80;1.33;;;;;;;-1.25;84.25;100972.19;5030683;28;20036;-78
2023/03/11 07:11:23;;;;;;;3.73;1.30;;;;;;;-1.21;84.52;100968.91;5032143;28;20041;-78
2023/03/11 07:13:49;;;;;;;4.13;1.50;;;;;;;-1.16;84.56;100981.78;5016024;28;20023;-78
2023/03/11 07:16:20;;;;;;;3.33;1.70;;;;;;;-1.12;84.73;100979.31;5030944;28;20070;-78
2023/03/11 07:18:47;;;;;;;3.70;1.40;;;;;;;-1.05;84.02;100979.47;5028824;28;20034;-78
2023/03/11 07:21:14;;;;;;;3.53;1.20;;;;;;;-1.02;84.04;100979.53;5016238;28;21540;-77
2023/03/11 07:23:41;;;;;;;2.37;1.30;;;;;;;-0.95;83.96;100983.97;5029557;28;20029;-78
2023/03/11 07:26:11;;;;;;;2.50;1.40;;;;;;;-0.90;83.66;100992.63;5029558;28;20036;-78
2023/03/11 07:28:37;;;;;;;3.60;1.67;;;;;;;-0.86;83.49;100986.75;5030371;28;20028;-78
2023/03/11 07:31:07;;;;;;;5.13;1.53;;;;;;;-0.82;83.29;100988.53;5031005;28;20021;-78
2023/03/11 07:33:32;;;;;;;2.93;1.47;;;;;;;-0.77;83.37;100992.06;5029389;28;20480;-78
2023/03/11 07:35:57;;;;;;;2.63;1.27;;;;;;;-0.73;84.06;100987.03;5029952;28;20029;-78
2023/03/11 07:38:23;;;;;;;3.13;1.40;;;;;;;-0.69;83.69;100992.25;5030054;28;20495;-77
2023/03/11 07:40:57;;;;;;;2.23;1.27;;;;;;;-0.64;83.34;100998.34;5031128;28;20021;-78
2023/03/11 07:43:22;;;;;;;5.47;1.53;;;;;;;-0.60;83.18;100991.59;5030571;28;20412;-78
2023/03/11 07:45:49;;;;;;;3.57;1.23;;;;;;;-0.57;83.73;101004.44;5030823;28;20022;-78
2023/03/11 07:48:14;;;;;;;2.67;1.30;;;;;;;-0.54;83.50;101001.97;5030721;28;20022;-78
2023/03/11 07:50:39;;;;;;;4.43;1.40;;;;;;;-0.49;83.77;101010.56;5030471;28;20044;-78
2023/03/11 07:53:04;;;;;;;2.93;1.30;;;;;;;-0.47;83.39;101006.38;5028882;28;20037;-78
2023/03/11 07:55:30;;;;;;;2.60;1.30;;;;;;;-0.41;83.00;101004.78;5031299;28;20044;-78
2023/03/11 07:57:55;;;;;;;2.50;1.20;;;;;;;-0.38;82.70;101010.81;5031016;28;20052;-78
2023/03/11 08:00:21;;;;;;;2.43;1.20;;;;;;;-0.35;82.85;101010.03;5029472;28;20041;-77
2023/03/11 08:02:46;;;;;;;3.10;1.17;;;;;;;-0.31;81.66;101016.91;5028829;28;20025;-78
2023/03/11 08:05:11;;;;;;;4.33;1.27;;;;;;;-0.26;81.41;101024.72;5028840;28;20025;-78
2023/03/11 08:07:37;;;;;;;4.03;1.50;;;;;;;-0.24;82.09;101023.91;5030556;28;20473;-78
2023/03/11 08:10:03;;;;;;;2.60;1.30;;;;;;;-0.19;81.49;101021.44;5030171;28;20156;-78
2023/03/11 08:12:28;;;;;;;2.33;1.20;;;;;;;-0.14;80.67;101029.22;5029715;28;20074;-78
2023/03/11 08:14:53;;;;;;;3.10;1.50;;;;;;;-0.11;80.52;101024.16;5031562;28;20029;-77
2023/03/11 08:17:19;;;;;;;2.13;1.20;;;;;;;-0.06;80.53;101032.81;5033955;28;20086;-78
2023/03/11 08:19:44;;;;;;;3.20;1.20;;;;;;;-0.01;79.74;101036.34;5035121;28;20145;-78
2023/03/11 08:22:09;;;;;;;2.93;1.20;;;;;;;0.04;80.42;101034.72;5034575;28;20103;-77
2023/03/11 08:24:35;;;;;;;3.03;1.20;;;;;;;0.12;80.00;101037.41;5034578;28;20021;-78
2023/03/11 08:27:00;;;;;;;2.93;1.30;;;;;;;0.19;80.07;101041.84;5033782;28;20437;-78
2023/03/11 08:29:25;;;;;;;3.67;1.20;;;;;;;0.23;79.73;101041.09;5031629;28;20095;-77
2023/03/11 08:31:51;;;;;;;4.97;1.40;;;;;;;0.30;79.18;101035.25;5017016;28;20495;-77
2023/03/11 08:34:16;;;;;;;4.03;1.23;;;;;;;0.36;78.99;101025.97;5034034;28;20480;-78
2023/03/11 08:36:42;;;;;;;3.67;1.33;;;;;;;0.39;78.42;101026.88;5033197;28;20026;-77
2023/03/11 08:39:08;;;;;;;3.83;1.30;;;;;;;0.44;78.97;101029.50;5032717;28;20551;-77
2023/03/11 08:41:33;;;;;;;1.97;1.03;;;;;;;0.47;78.46;101029.56;5032707;28;20053;-79
2023/03/11 08:43:59;;;;;;;4.00;1.10;;;;;;;0.52;78.56;101032.22;5032038;28;20067;-77
2023/03/11 08:46:28;;;;;;;3.03;1.20;;;;;;;0.57;78.41;101038.28;5016749;28;20395;-78
2023/03/11 08:48:53;;;;;;;3.83;1.03;;;;;;;0.61;77.49;101045.19;5031859;28;20029;-78
2023/03/11 08:51:19;;;;;;;2.17;1.20;;;;;;;0.66;75.87;101052.97;5030730;28;20029;-78
2023/03/11 08:53:46;;;;;;;1.90;1.00;;;;;;;0.69;75.16;101051.31;5029289;28;20025;-78
2023/03/11 08:56:11;;;;;;;3.13;1.10;;;;;;;0.74;76.49;101056.53;5027949;28;20100;-78
2023/03/11 08:58:37;;;;;;;1.63;0.93;;;;;;;0.79;74.17;101059.19;5028702;28;20105;-78
2023/03/11 09:01:03;;;;;;;3.33;1.00;;;;;;;0.82;74.29;101057.53;5033164;28;20480;-78
2023/03/11 09:03:34;;;;;;;2.80;0.90;;;;;;;0.88;73.84;101069.56;5029474;28;20109;-77
2023/03/11 09:06:01;;;;;;;3.33;1.00;;;;;;;0.95;72.94;101073.97;5015040;28;20017;-78
2023/03/11 09:08:27;;;;;;;2.67;1.00;;;;;;;1.00;74.52;101072.38;5030975;28;20021;-78
2023/03/11 09:10:52;;;;;;;2.83;0.90;;;;;;;1.04;73.67;101073.28;5031902;28;20021;-78
2023/03/11 09:13:18;;;;;;;4.07;1.03;;;;;;;1.10;74.31;101067.41;5030457;28;20079;-78
2023/03/11 09:15:43;;;;;;;2.77;0.90;;;;;;;1.17;73.73;101066.69;5030027;28;20025;-77
2023/03/11 09:18:12;;;;;;;2.63;1.00;;;;;;;1.24;73.24;101076.16;5030943;28;20025;-78
2023/03/11 09:20:38;;;;;;;3.30;1.10;;;;;;;1.32;72.54;101072.03;5033199;28;20045;-78
2023/03/11 09:23:04;;;;;;;2.87;1.13;;;;;;;1.41;72.77;101078.13;5015984;28;20026;-78
2023/03/11 09:25:29;;;;;;;2.97;1.10;;;;;;;1.45;72.73;101074.78;5032197;28;20025;-78
2023/03/11 09:27:54;;;;;;;2.43;0.70;;;;;;;1.49;70.77;101079.13;5033154;28;20108;-78
2023/03/11 09:30:20;;;;;;;2.27;1.03;;;;;;;1.54;69.33;101072.34;5017796;28;20021;-77
2023/03/11 09:32:45;;;;;;;2.43;0.70;;;;;;;1.60;72.36;101079.31;5033115;28;20618;-78
2023/03/11 09:35:10;;;;;;;2.43;0.87;;;;;;;1.64;69.75;101081.94;5031552;28;20028;-80
2023/03/11 09:37:36;;;;;;;0.90;0.60;;;;;;;1.69;67.97;101089.69;5036690;28;20029;-79
2023/03/11 09:40:01;;;;;;;1.67;0.60;;;;;;;1.78;67.33;101087.28;5038598;28;20472;-79
2023/03/11 09:42:32;;;;;;;2.33;0.60;;;;;;;1.92;65.35;101087.44;5039645;28;20062;-79
2023/03/11 09:45:05;;;;;;;1.92;0.68;;;;;;;2.05;68.91;101090.22;5039859;28;20028;-79
2023/03/11 09:47:59;;;;;;;1.37;0.70;;;;;;;2.20;69.55;101098.09;5037119;28;20036;-80
2023/03/11 09:50:42;;;;;;;2.07;0.60;;;;;;;2.28;69.23;101086.22;5038650;28;20041;-80
2023/03/11 09:53:31;;;;;;;1.63;0.70;;;;;;;2.36;67.54;101088.03;5037700;28;20029;-80
2023/03/11 09:56:00;;;;;;;1.53;0.57;;;;;;;2.43;68.52;101088.13;5040335;28;20108;-80
2023/03/11 09:58:38;;;;;;;1.93;0.60;;;;;;;2.50;69.00;101086.47;5038412;28;20034;-80
2023/03/11 10:01:19;;;;;;;3.67;0.77;;;;;;;2.58;66.16;101087.41;5010848;28;20406;-81
2023/03/11 10:03:47;;;;;;;2.83;0.63;;;;;;;2.65;63.44;101090.91;5038380;28;20037;-81
2023/03/11 10:06:24;;;;;;;1.30;0.60;;;;;;;2.72;65.01;101084.16;5023555;28;20136;-81
2023/03/11 10:08:58;;;;;;;2.63;0.77;;;;;;;2.80;65.10;101086.81;5040693;28;20074;-80
2023/03/11 10:11:45;;;;;;;1.97;0.60;;;;;;;2.88;64.01;101091.19;5038265;28;20033;-80
2023/03/11 10:14:20;;;;;;;1.77;0.80;;;;;;;2.96;66.01;101085.22;5010369;28;20033;-80
2023/03/11 10:17:21;;;;;;;1.00;0.57;;;;;;;2.99;69.77;101080.97;5039585;28;20033;-80
2023/03/11 10:20:18;;;;;;;1.87;0.50;;;;;;;2.99;68.08;101082.69;5034825;28;20080;-80
2023/03/11 10:23:06;;;;;;;2.23;0.67;;;;;;;2.99;65.74;101091.25;5034096;28;20103;-79
2023/03/11 10:25:51;;;;;;;2.37;0.60;;;;;;;3.04;66.53;101099.03;5031405;28;20029;-79
2023/03/11 10:28:19;;;;;;;1.70;0.60;;;;;;;3.09;63.04;101111.91;5033795;28;20029;-79
2023/03/11 10:30:49;;;;;;;2.23;0.60;;;;;;;3.13;61.81;101093.97;5036979;28;20071;-80
2023/03/11 10:33:47;;;;;;;1.83;0.50;;;;;;;3.25;65.74;101098.34;5034582;28;20063;-80
2023/03/11 10:36:23;;;;;;;1.17;0.40;;;;;;;3.32;61.16;101104.41;5031150;28;20055;-80
2023/03/11 10:38:50;;;;;;;0.63;0.50;;;;;;;3.36;61.96;101103.59;5034797;28;20481;-80
2023/03/11 10:41:18;;;;;;;1.47;0.50;;;;;;;3.43;62.47;101109.66;5037213;28;20059;-80
2023/03/11 10:43:50;;;;;;;1.13;0.47;;;;;;;3.47;64.23;101103.69;5037613;28;20484;-84
2023/03/11 10:46:24;;;;;;;1.80;0.60;;;;;;;3.55;62.76;101112.31;5035516;28;20062;-80
2023/03/11 10:48:49;;;;;;;0.87;0.40;;;;;;;3.66;62.98;101106.41;5036691;28;20087;-80
2023/03/11 10:51:23;;;;;;;2.83;0.63;;;;;;;3.73;61.76;101106.44;5037102;28;20032;-80
2023/03/11 10:53:57;;;;;;;0.60;0.40;;;;;;;3.76;57.50;101106.44;5035769;28;20029;-80
2023/03/11 10:56:23;;;;;;;2.63;0.60;;;;;;;3.83;57.69;101103.91;5034130;28;20051;-81
2023/03/11 10:58:49;;;;;;;0.97;0.40;;;;;;;3.90;58.16;101097.97;5033018;28;20480;-81
2023/03/11 11:01:17;;;;;;;2.57;0.60;;;;;;;4.02;58.93;101108.34;5033999;28;20036;-80
2023/03/11 11:03:45;;;;;;;0.70;0.55;;;;;;;4.10;56.74;101101.50;5029239;28;20021;-81
2023/03/11 11:06:25;;;;;;;1.30;0.50;;;;;;;4.17;61.44;101093.81;5033634;28;20392;-80
2023/03/11 11:09:29;;;;;;;1.52;0.50;;;;;;;4.29;63.79;101091.28;5027660;28;20025;-82
2023/03/11 11:12:04;;;;;;;1.03;0.50;;;;;;;4.41;61.97;101095.63;4962627;28;20026;-80
2023/03/11 11:14:50;;;;;;;1.23;0.60;;;;;;;4.49;62.62;101098.22;5022967;28;20037;-80
2023/03/11 11:17:22;;;;;;;1.47;0.50;;;;;;;4.51;60.00;101106.84;5030705;28;20025;-80
2023/03/11 11:19:50;;;;;;;1.23;0.40;;;;;;;4.51;56.25;101107.72;5030575;28;20037;-79
2023/03/11 11:22:17;;;;;;;1.92;0.60;;;;;;;4.53;61.74;101099.97;5031638;28;20123;-80
2023/03/11 11:24:45;;;;;;;2.13;0.60;;;;;;;4.60;60.98;101106.88;5030848;28;20071;-80
2023/03/11 11:27:10;;;;;;;1.87;0.57;;;;;;;4.67;60.23;101108.59;5030554;28;20018;-80
2023/03/11 11:29:35;;;;;;;1.13;0.50;;;;;;;4.76;58.86;101106.94;5033187;28;20353;-80
2023/03/11 11:32:19;;;;;;;2.40;0.60;;;;;;;4.83;62.67;101103.50;5033610;28;20033;-80